Time;durP1;ratioP1;P1;durP2;ratioP2;P2;SDS_P1;SDS_P2;PMS_P1;PMS_P2;Temp;Humidity;BMP_temperature;BMP_pressure;BME280_temperature;BME280_humidity;BME280_pressure;Samples;Min_cycle;Max_cycle;Signal;HPM_P1;HPM_P2
2021/10/30 00:01:13;;;;;;;3.03;1.90;;;;;;;;;;4367586;32;20498;-62
2021/10/30 00:03:40;;;;;;;2.10;1.90;;;;;;;;;;4368536;32;20148;-63
2021/10/30 00:06:06;;;;;;;2.00;1.75;;;;;;;;;;4404221;32;20101;-63
2021/10/30 00:08:33;;;;;;;2.00;1.77;;;;;;;;;;4391104;32;20096;-63
2021/10/30 00:11:00;;;;;;;2.45;2.00;;;;;;;;;;4367373;32;20073;-62
2021/10/30 00:13:26;;;;;;;2.53;2.12;;;;;;;;;;4360936;32;20096;-62
2021/10/30 00:15:54;;;;;;;2.95;2.03;;;;;;;;;;4367791;32;20162;-63
2021/10/30 00:18:20;;;;;;;2.20;1.90;;;;;;;;;;4379943;32;20181;-63
2021/10/30 00:20:47;;;;;;;2.58;2.00;;;;;;;;;;4354708;32;20093;-62
2021/10/30 00:23:13;;;;;;;3.03;2.12;;;;;;;;;;4342024;32;20077;-63
2021/10/30 00:25:40;;;;;;;2.60;2.00;;;;;;;;;;4366889;32;20472;-61
2021/10/30 00:28:07;;;;;;;2.10;1.90;;;;;;;;;;4342612;32;20096;-63
2021/10/30 00:30:34;;;;;;;2.28;1.95;;;;;;;;;;4342414;32;20166;-62
2021/10/30 00:33:01;;;;;;;2.30;1.80;;;;;;;;;;4341625;32;20097;-63
2021/10/30 00:35:27;;;;;;;2.75;2.10;;;;;;;;;;4379287;32;20250;-62
2021/10/30 00:37:54;;;;;;;2.35;1.90;;;;;;;;;;4366826;32;20193;-63
2021/10/30 00:40:20;;;;;;;2.30;2.03;;;;;;;;;;4379430;32;20164;-64
2021/10/30 00:42:47;;;;;;;4.15;2.35;;;;;;;;;;4354550;32;20170;-62
2021/10/30 00:45:13;;;;;;;3.58;2.25;;;;;;;;;;4378610;32;20088;-62
2021/10/30 00:47:40;;;;;;;4.28;2.20;;;;;;;;;;4365992;32;20552;-62
2021/10/30 00:50:07;;;;;;;3.37;1.98;;;;;;;;;;4379018;32;20082;-62
2021/10/30 00:52:34;;;;;;;3.40;2.15;;;;;;;;;;4341963;32;20100;-62
2021/10/30 00:55:00;;;;;;;2.00;1.77;;;;;;;;;;4367422;32;20104;-62
2021/10/30 00:57:27;;;;;;;2.83;2.25;;;;;;;;;;4379411;32;20090;-63
2021/10/30 00:59:54;;;;;;;3.78;2.40;;;;;;;;;;4342898;32;20510;-61
2021/10/30 01:02:22;;;;;;;2.55;2.12;;;;;;;;;;4354530;32;20085;-61
2021/10/30 01:04:48;;;;;;;2.50;2.30;;;;;;;;;;4366937;32;20090;-63
2021/10/30 01:07:15;;;;;;;4.32;2.30;;;;;;;;;;4378565;32;20089;-62
2021/10/30 01:09:41;;;;;;;3.03;2.40;;;;;;;;;;4354568;32;20057;-63
2021/10/30 01:12:11;;;;;;;2.25;2.05;;;;;;;;;;4342139;32;20433;-63
2021/10/30 01:14:37;;;;;;;2.30;2.10;;;;;;;;;;4366608;32;20451;-62
2021/10/30 01:17:05;;;;;;;3.17;2.37;;;;;;;;;;4354044;32;20128;-62
2021/10/30 01:19:32;;;;;;;3.08;2.25;;;;;;;;;;4365991;32;20519;-63
2021/10/30 01:21:59;;;;;;;2.97;2.53;;;;;;;;;;4354235;32;20516;-62
2021/10/30 01:24:26;;;;;;;3.42;2.05;;;;;;;;;;4366720;32;20092;-62
2021/10/30 01:26:53;;;;;;;2.90;2.33;;;;;;;;;;4378637;32;20082;-63
2021/10/30 01:29:20;;;;;;;2.95;2.40;;;;;;;;;;4365975;32;20488;-62
2021/10/30 01:31:49;;;;;;;2.42;2.15;;;;;;;;;;4353809;32;20460;-63
2021/10/30 01:34:15;;;;;;;3.62;2.05;;;;;;;;;;4366315;32;20448;-62
2021/10/30 01:36:42;;;;;;;4.68;2.25;;;;;;;;;;4366356;32;20177;-63
2021/10/30 01:39:09;;;;;;;2.60;2.12;;;;;;;;;;4365877;32;20070;-61
2021/10/30 01:41:36;;;;;;;2.42;2.00;;;;;;;;;;4341091;32;20078;-63
2021/10/30 01:44:03;;;;;;;2.92;2.40;;;;;;;;;;4365414;32;20564;-63
2021/10/30 01:46:32;;;;;;;3.70;2.25;;;;;;;;;;4353367;32;20420;-61
2021/10/30 01:48:58;;;;;;;2.85;2.50;;;;;;;;;;4366189;32;20066;-61
2021/10/30 01:51:25;;;;;;;3.10;2.30;;;;;;;;;;4365090;32;20085;-63
2021/10/30 01:53:51;;;;;;;3.67;2.28;;;;;;;;;;4378127;32;20078;-63
2021/10/30 01:56:18;;;;;;;2.40;2.20;;;;;;;;;;4391929;32;20088;-62
2021/10/30 01:58:45;;;;;;;3.58;2.47;;;;;;;;;;4340840;32;20089;-63
2021/10/30 02:01:11;;;;;;;3.08;2.40;;;;;;;;;;4365918;32;20081;-63
2021/10/30 02:03:38;;;;;;;2.85;2.10;;;;;;;;;;4352945;32;20162;-62
2021/10/30 02:06:05;;;;;;;2.67;2.40;;;;;;;;;;4365326;32;20160;-63
2021/10/30 02:08:31;;;;;;;4.03;2.40;;;;;;;;;;4352626;32;20573;-63
2021/10/30 02:10:58;;;;;;;2.62;2.25;;;;;;;;;;4378141;32;20085;-61
2021/10/30 02:13:25;;;;;;;3.17;2.20;;;;;;;;;;4353588;32;20073;-62
2021/10/30 02:15:52;;;;;;;3.42;2.60;;;;;;;;;;4366463;32;20069;-62
2021/10/30 02:18:19;;;;;;;4.10;2.40;;;;;;;;;;4369284;32;20139;-62
2021/10/30 02:20:46;;;;;;;2.42;1.95;;;;;;;;;;4382711;32;20160;-62
2021/10/30 02:23:13;;;;;;;3.97;2.12;;;;;;;;;;4353234;32;20161;-62
2021/10/30 02:25:39;;;;;;;3.42;2.60;;;;;;;;;;4353223;32;20077;-63
2021/10/30 02:28:06;;;;;;;3.53;2.55;;;;;;;;;;4377819;32;20097;-62
2021/10/30 02:30:33;;;;;;;2.97;2.40;;;;;;;;;;4365195;32;20077;-62
2021/10/30 02:33:00;;;;;;;3.40;2.30;;;;;;;;;;4377657;32;20151;-63
2021/10/30 02:35:27;;;;;;;4.10;2.80;;;;;;;;;;4377493;32;20128;-62
2021/10/30 02:37:53;;;;;;;2.87;2.30;;;;;;;;;;4365361;32;20182;-63
2021/10/30 02:40:20;;;;;;;2.35;2.10;;;;;;;;;;4352949;32;20089;-64
2021/10/30 02:42:47;;;;;;;3.70;2.25;;;;;;;;;;4365007;32;20082;-62
2021/10/30 02:45:13;;;;;;;3.47;2.42;;;;;;;;;;4340051;32;20092;-63
2021/10/30 02:47:40;;;;;;;2.95;2.35;;;;;;;;;;4377530;32;20078;-63
2021/10/30 02:50:07;;;;;;;3.60;2.40;;;;;;;;;;4365014;32;20085;-62
2021/10/30 02:52:34;;;;;;;3.80;2.45;;;;;;;;;;4364976;32;20150;-62
2021/10/30 02:55:00;;;;;;;3.70;2.45;;;;;;;;;;4364876;32;20076;-63
2021/10/30 02:58:19;;;;;;;3.55;2.50;;;;;;;;;;3856082;37;20619;-62
2021/10/30 03:00:46;;;;;;;4.32;2.37;;;;;;;;;;4393445;32;20142;-63
2021/10/30 03:03:13;;;;;;;3.67;2.50;;;;;;;;;;4406285;32;20085;-62
2021/10/30 03:05:40;;;;;;;3.15;2.33;;;;;;;;;;4367737;32;20531;-63
2021/10/30 03:08:06;;;;;;;4.00;2.60;;;;;;;;;;4393060;32;20509;-62
2021/10/30 03:10:33;;;;;;;3.40;2.65;;;;;;;;;;4380225;32;20077;-63
2021/10/30 03:13:00;;;;;;;4.50;2.50;;;;;;;;;;4380049;32;20571;-64
2021/10/30 03:15:27;;;;;;;3.25;2.28;;;;;;;;;;4392872;32;20074;-63
2021/10/30 03:17:53;;;;;;;4.40;2.58;;;;;;;;;;4379932;32;20069;-63
2021/10/30 03:20:20;;;;;;;3.97;2.58;;;;;;;;;;4419549;32;20587;-62
2021/10/30 03:22:46;;;;;;;4.47;2.50;;;;;;;;;;4392679;32;20081;-63
2021/10/30 03:25:13;;;;;;;4.75;2.42;;;;;;;;;;4393270;32;20161;-63
2021/10/30 03:27:40;;;;;;;3.30;2.50;;;;;;;;;;4393009;32;20157;-63
2021/10/30 03:30:07;;;;;;;3.40;2.58;;;;;;;;;;4380283;32;20165;-61
2021/10/30 03:32:34;;;;;;;3.12;2.60;;;;;;;;;;4389977;32;20076;-61
2021/10/30 03:35:01;;;;;;;3.15;2.25;;;;;;;;;;4378058;32;20431;-62
2021/10/30 03:37:27;;;;;;;4.12;2.70;;;;;;;;;;4378051;32;20085;-63
2021/10/30 03:39:54;;;;;;;6.00;2.10;;;;;;;;;;4365015;32;20165;-62
2021/10/30 03:42:23;;;;;;;2.67;2.10;;;;;;;;;;4377175;32;20455;-62
2021/10/30 03:44:50;;;;;;;3.87;2.42;;;;;;;;;;4377318;32;20471;-62
2021/10/30 03:47:17;;;;;;;7.40;2.90;;;;;;;;;;4377534;32;20073;-64
2021/10/30 03:49:44;;;;;;;4.25;2.53;;;;;;;;;;4377348;32;20476;-63
2021/10/30 03:52:11;;;;;;;4.40;2.33;;;;;;;;;;4377723;32;20170;-63
2021/10/30 03:54:38;;;;;;;3.15;2.30;;;;;;;;;;4377330;32;20073;-63
2021/10/30 03:57:05;;;;;;;3.67;2.58;;;;;;;;;;4371504;32;20527;-62
2021/10/30 03:59:32;;;;;;;3.15;2.20;;;;;;;;;;4347832;32;20092;-63
2021/10/30 04:04:34;;;;;;;4.07;2.77;;;;;;;;;;3857397;37;20058;-63
2021/10/30 04:07:02;;;;;;;3.62;2.53;;;;;;;;;;4393959;32;20199;-62
2021/10/30 04:09:28;;;;;;;4.12;2.83;;;;;;;;;;4393571;32;20528;-63
2021/10/30 04:11:55;;;;;;;3.28;2.50;;;;;;;;;;4381297;32;20088;-63
2021/10/30 04:14:22;;;;;;;4.62;2.87;;;;;;;;;;4393227;32;20475;-62
2021/10/30 04:16:49;;;;;;;3.78;2.58;;;;;;;;;;4407384;32;20583;-64
2021/10/30 04:19:16;;;;;;;5.30;2.60;;;;;;;;;;4405867;32;20439;-63
2021/10/30 04:21:43;;;;;;;3.28;2.78;;;;;;;;;;4381027;32;20086;-63
2021/10/30 04:24:10;;;;;;;3.97;2.60;;;;;;;;;;4380547;32;20496;-64
2021/10/30 04:26:37;;;;;;;3.17;2.62;;;;;;;;;;4393332;32;20492;-63
2021/10/30 04:29:04;;;;;;;5.87;2.72;;;;;;;;;;4393847;32;20095;-64
2021/10/30 04:31:31;;;;;;;3.87;2.80;;;;;;;;;;4405834;32;20184;-63
2021/10/30 04:34:03;;;;;;;3.62;3.00;;;;;;;;;;4380572;32;20173;-62
2021/10/30 04:36:31;;;;;;;4.80;2.90;;;;;;;;;;4417801;32;20173;-62
2021/10/30 04:38:59;;;;;;;6.32;2.90;;;;;;;;;;4405696;32;20073;-62
2021/10/30 04:41:25;;;;;;;4.05;2.80;;;;;;;;;;4405280;32;20070;-62
2021/10/30 04:43:52;;;;;;;4.47;2.80;;;;;;;;;;4418034;32;20471;-63
2021/10/30 04:46:20;;;;;;;3.95;2.72;;;;;;;;;;4419451;32;20077;-63
2021/10/30 04:48:47;;;;;;;3.70;2.65;;;;;;;;;;4403150;32;20073;-62
2021/10/30 04:51:14;;;;;;;4.78;3.03;;;;;;;;;;4399821;32;20580;-61
2021/10/30 04:53:42;;;;;;;5.68;3.40;;;;;;;;;;4406126;32;20530;-63
2021/10/30 04:56:09;;;;;;;4.80;3.22;;;;;;;;;;4405348;32;20092;-62
2021/10/30 04:58:41;;;;;;;4.12;3.15;;;;;;;;;;4405552;32;20068;-63
2021/10/30 05:01:08;;;;;;;4.32;2.70;;;;;;;;;;4380841;32;20170;-62
2021/10/30 05:03:34;;;;;;;7.85;3.25;;;;;;;;;;4379555;32;20093;-62
2021/10/30 05:06:01;;;;;;;4.75;3.08;;;;;;;;;;4392708;32;20088;-63
2021/10/30 05:08:28;;;;;;;6.03;3.80;;;;;;;;;;4404884;32;20096;-63
2021/10/30 05:10:55;;;;;;;5.05;3.28;;;;;;;;;;4391811;32;20088;-62
2021/10/30 05:13:21;;;;;;;4.93;3.15;;;;;;;;;;4405163;32;20085;-62
2021/10/30 05:15:48;;;;;;;5.05;3.45;;;;;;;;;;4382440;32;20096;-61
2021/10/30 05:18:15;;;;;;;4.53;3.08;;;;;;;;;;4407099;32;20070;-62
2021/10/30 05:20:41;;;;;;;4.37;3.08;;;;;;;;;;4407311;32;20093;-62
2021/10/30 05:23:08;;;;;;;6.37;3.17;;;;;;;;;;4407093;32;20065;-62
2021/10/30 05:25:34;;;;;;;6.20;3.35;;;;;;;;;;4407529;32;20073;-62
2021/10/30 05:28:01;;;;;;;5.40;3.25;;;;;;;;;;4408850;32;20195;-62
2021/10/30 05:30:28;;;;;;;6.10;3.50;;;;;;;;;;4369802;32;20085;-64
2021/10/30 05:32:55;;;;;;;5.65;3.35;;;;;;;;;;4382368;32;20140;-63
2021/10/30 05:35:21;;;;;;;4.85;3.10;;;;;;;;;;4394838;32;20077;-61
2021/10/30 05:37:48;;;;;;;6.32;3.15;;;;;;;;;;4394689;32;20116;-62
2021/10/30 05:40:15;;;;;;;3.53;2.80;;;;;;;;;;4383169;32;20161;-61
2021/10/30 05:42:42;;;;;;;5.25;3.30;;;;;;;;;;4383158;32;20061;-62
2021/10/30 05:45:09;;;;;;;3.95;2.80;;;;;;;;;;4382318;32;20066;-63
2021/10/30 05:47:37;;;;;;;4.68;2.75;;;;;;;;;;4381843;32;20474;-62
2021/10/30 05:50:04;;;;;;;4.85;2.92;;;;;;;;;;4382673;32;20077;-63
2021/10/30 05:52:31;;;;;;;4.70;3.17;;;;;;;;;;4381519;32;20085;-62
2021/10/30 05:54:58;;;;;;;4.82;3.22;;;;;;;;;;4394545;32;20100;-61
2021/10/30 05:57:25;;;;;;;6.28;3.70;;;;;;;;;;4394536;32;20183;-62
2021/10/30 05:59:52;;;;;;;6.40;3.55;;;;;;;;;;4368858;32;20078;-61
2021/10/30 06:02:19;;;;;;;6.12;3.10;;;;;;;;;;4393494;32;20153;-61
2021/10/30 06:04:45;;;;;;;5.03;3.45;;;;;;;;;;4381455;32;20082;-62
2021/10/30 06:07:12;;;;;;;4.85;3.30;;;;;;;;;;4381086;32;20524;-62
2021/10/30 06:09:39;;;;;;;7.03;3.00;;;;;;;;;;4394040;32;20073;-62
2021/10/30 06:12:06;;;;;;;5.72;3.67;;;;;;;;;;4394006;32;20089;-62
2021/10/30 06:14:33;;;;;;;5.25;3.42;;;;;;;;;;4369124;32;20551;-63
2021/10/30 06:17:00;;;;;;;5.18;3.08;;;;;;;;;;4381097;32;20092;-64
2021/10/30 06:19:27;;;;;;;4.70;3.15;;;;;;;;;;4406832;32;20097;-62
2021/10/30 06:21:54;;;;;;;5.75;3.80;;;;;;;;;;4369130;32;20107;-63
2021/10/30 06:24:21;;;;;;;5.03;3.15;;;;;;;;;;4406335;32;20076;-64
2021/10/30 06:26:48;;;;;;;7.20;3.62;;;;;;;;;;4405795;32;20069;-63
2021/10/30 06:29:14;;;;;;;5.00;3.67;;;;;;;;;;4406232;32;20089;-64
2021/10/30 06:31:41;;;;;;;7.28;3.65;;;;;;;;;;4380596;32;20089;-63
2021/10/30 06:34:08;;;;;;;8.30;3.60;;;;;;;;;;4393286;32;20500;-63
2021/10/30 06:36:35;;;;;;;6.47;3.53;;;;;;;;;;4381145;32;20530;-61
2021/10/30 06:39:02;;;;;;;5.15;3.37;;;;;;;;;;4393798;32;20089;-66
2021/10/30 06:41:29;;;;;;;7.55;3.92;;;;;;;;;;4381281;32;20077;-59
2021/10/30 06:43:56;;;;;;;6.97;4.10;;;;;;;;;;4393189;32;20531;-62
2021/10/30 06:46:23;;;;;;;5.15;3.60;;;;;;;;;;4392895;32;20535;-62
2021/10/30 06:48:55;;;;;;;5.80;3.53;;;;;;;;;;4393709;32;20480;-63
2021/10/30 06:51:22;;;;;;;6.97;3.75;;;;;;;;;;4394268;32;20077;-60
2021/10/30 06:53:49;;;;;;;7.53;3.80;;;;;;;;;;4406268;32;20114;-62
2021/10/30 06:56:16;;;;;;;6.22;3.58;;;;;;;;;;4368188;32;20181;-62
2021/10/30 06:58:43;;;;;;;6.85;3.60;;;;;;;;;;4392925;32;20598;-62
2021/10/30 07:01:12;;;;;;;6.95;3.85;;;;;;;;;;4380594;32;20076;-62
2021/10/30 07:03:39;;;;;;;7.80;3.85;;;;;;;;;;4380912;32;20085;-62
2021/10/30 07:06:06;;;;;;;7.68;4.35;;;;;;;;;;4380772;32;20156;-60
2021/10/30 07:08:33;;;;;;;6.93;4.00;;;;;;;;;;4393411;32;20188;-61
2021/10/30 07:11:00;;;;;;;6.12;3.20;;;;;;;;;;4393275;32;20088;-60
2021/10/30 07:13:27;;;;;;;5.65;3.58;;;;;;;;;;4380668;32;20092;-61
2021/10/30 07:15:54;;;;;;;5.80;3.92;;;;;;;;;;4368827;32;20084;-63
2021/10/30 07:18:20;;;;;;;8.25;4.20;;;;;;;;;;4401198;32;20105;-67
2021/10/30 07:20:48;;;;;;;6.32;3.53;;;;;;;;;;4386245;32;20173;-62
2021/10/30 07:23:17;;;;;;;7.30;3.30;;;;;;;;;;4375025;32;20082;-63
2021/10/30 07:25:43;;;;;;;8.98;3.67;;;;;;;;;;4387293;32;20145;-64
2021/10/30 07:28:11;;;;;;;7.62;4.00;;;;;;;;;;4391706;32;20085;-64
2021/10/30 07:30:38;;;;;;;6.03;3.60;;;;;;;;;;4372435;32;20152;-61
2021/10/30 07:33:04;;;;;;;6.72;4.05;;;;;;;;;;4366473;32;20158;-62
2021/10/30 07:35:31;;;;;;;7.30;3.92;;;;;;;;;;4382646;32;20174;-64
2021/10/30 07:38:00;;;;;;;5.87;3.62;;;;;;;;;;4389194;32;20096;-63
2021/10/30 07:40:28;;;;;;;5.70;3.67;;;;;;;;;;4379900;32;20069;-63
2021/10/30 07:42:57;;;;;;;8.27;4.03;;;;;;;;;;4370308;32;20137;-63
2021/10/30 07:45:23;;;;;;;6.53;4.18;;;;;;;;;;4376743;32;20451;-62
2021/10/30 07:47:50;;;;;;;6.82;4.20;;;;;;;;;;4379284;32;20173;-63
2021/10/30 07:50:17;;;;;;;7.15;4.12;;;;;;;;;;4376314;32;20145;-63
2021/10/30 07:52:44;;;;;;;5.80;4.10;;;;;;;;;;4375330;32;20081;-64
2021/10/30 07:55:11;;;;;;;5.53;3.50;;;;;;;;;;4365039;32;20076;-61
2021/10/30 07:57:38;;;;;;;5.75;4.00;;;;;;;;;;4363240;32;20088;-63
2021/10/30 08:00:06;;;;;;;5.55;3.42;;;;;;;;;;4376688;32;20097;-62
2021/10/30 08:02:33;;;;;;;6.32;3.92;;;;;;;;;;4376428;32;20207;-64
2021/10/30 08:05:03;;;;;;;4.22;2.97;;;;;;;;;;4398427;32;20092;-64
2021/10/30 08:07:33;;;;;;;6.75;3.70;;;;;;;;;;4376968;32;20088;-63
2021/10/30 08:10:01;;;;;;;5.62;3.47;;;;;;;;;;4365686;32;20094;-63
2021/10/30 08:12:28;;;;;;;7.30;3.75;;;;;;;;;;4375110;32;20096;-62
2021/10/30 08:14:55;;;;;;;6.18;3.40;;;;;;;;;;4361842;32;20542;-65
2021/10/30 08:17:22;;;;;;;5.50;4.10;;;;;;;;;;4364003;32;20576;-63
2021/10/30 08:19:48;;;;;;;5.80;3.50;;;;;;;;;;4364209;32;20144;-63
2021/10/30 08:22:15;;;;;;;6.32;3.40;;;;;;;;;;4376659;32;20101;-63
2021/10/30 08:24:41;;;;;;;6.80;3.90;;;;;;;;;;4388934;32;20078;-63
2021/10/30 08:27:08;;;;;;;4.70;3.58;;;;;;;;;;4376712;32;20082;-62
2021/10/30 08:29:35;;;;;;;8.15;3.87;;;;;;;;;;4364221;32;20074;-63
2021/10/30 08:32:01;;;;;;;5.75;3.35;;;;;;;;;;4376360;32;20173;-62
2021/10/30 08:34:29;;;;;;;6.97;3.60;;;;;;;;;;4351610;32;20077;-64
2021/10/30 08:36:56;;;;;;;6.82;3.85;;;;;;;;;;4364308;32;20542;-63
2021/10/30 08:39:23;;;;;;;5.35;3.65;;;;;;;;;;4377218;32;20176;-62
2021/10/30 08:41:50;;;;;;;7.55;3.42;;;;;;;;;;4377152;32;20082;-63
2021/10/30 08:44:19;;;;;;;4.55;3.33;;;;;;;;;;4376734;32;20126;-63
2021/10/30 08:46:46;;;;;;;7.37;3.87;;;;;;;;;;4376973;32;20100;-63
2021/10/30 08:49:14;;;;;;;5.87;3.55;;;;;;;;;;4352457;32;20157;-63
2021/10/30 08:51:41;;;;;;;7.37;3.65;;;;;;;;;;4379828;32;20154;-63
2021/10/30 08:54:08;;;;;;;7.68;3.87;;;;;;;;;;4379548;32;20081;-65
2021/10/30 08:56:38;;;;;;;6.35;4.05;;;;;;;;;;4379735;32;20089;-61
2021/10/30 08:59:05;;;;;;;6.07;3.87;;;;;;;;;;4392022;32;20492;-62
2021/10/30 09:01:43;;;;;;;6.18;3.60;;;;;;;;;;4367576;32;20081;-60
2021/10/30 09:04:12;;;;;;;7.15;3.70;;;;;;;;;;4367244;32;20173;-61
2021/10/30 09:06:46;;;;;;;7.50;3.62;;;;;;;;;;4379370;32;20580;-62
2021/10/30 09:09:16;;;;;;;5.55;3.53;;;;;;;;;;4392441;32;20149;-62
2021/10/30 09:11:52;;;;;;;5.75;3.53;;;;;;;;;;4392426;32;20069;-62
2021/10/30 09:14:20;;;;;;;;;;;;;;;;;;4381214;32;20070;-62
2021/10/30 09:17:08;;;;;;;5.53;3.33;;;;;;;;;;4379726;32;19973;-62
2021/10/30 09:19:34;;;;;;;5.37;3.60;;;;;;;;;;4392560;32;20500;-62
2021/10/30 09:22:05;;;;;;;6.32;3.75;;;;;;;;;;4379698;32;20078;-61
2021/10/30 09:24:32;;;;;;;5.18;3.75;;;;;;;;;;4367214;32;20073;-61
2021/10/30 09:27:00;;;;;;;6.12;3.97;;;;;;;;;;4367313;32;20511;-62
2021/10/30 09:29:26;;;;;;;5.82;3.62;;;;;;;;;;4380421;32;20524;-62
2021/10/30 09:32:08;;;;;;;5.15;3.37;;;;;;;;;;4392419;32;20089;-61
2021/10/30 09:34:35;;;;;;;5.30;3.75;;;;;;;;;;4381085;32;20081;-61
2021/10/30 09:37:02;;;;;;;6.10;3.40;;;;;;;;;;4366965;32;20077;-63
2021/10/30 09:39:29;;;;;;;6.43;3.55;;;;;;;;;;4354252;32;20070;-62
2021/10/30 09:41:56;;;;;;;6.55;3.90;;;;;;;;;;4367481;32;20101;-62
2021/10/30 09:44:23;;;;;;;5.57;3.92;;;;;;;;;;4366853;32;20084;-61
2021/10/30 09:46:53;;;;;;;5.55;3.90;;;;;;;;;;4367164;32;20108;-61
2021/10/30 09:49:21;;;;;;;6.47;3.95;;;;;;;;;;4367756;32;20073;-61
2021/10/30 09:51:49;;;;;;;4.18;3.30;;;;;;;;;;4394985;32;20504;-62
2021/10/30 09:54:38;;;;;;;7.07;4.35;;;;;;;;;;4394375;32;20166;-63
2021/10/30 09:57:07;;;;;;;5.03;3.65;;;;;;;;;;4392762;32;20093;-64
2021/10/30 09:59:36;;;;;;;8.35;3.90;;;;;;;;;;4391784;32;20076;-63
2021/10/30 10:02:03;;;;;;;4.85;3.58;;;;;;;;;;4379309;32;20074;-65
2021/10/30 10:04:30;;;;;;;5.18;3.62;;;;;;;;;;4366275;32;20078;-62
2021/10/30 10:06:56;;;;;;;4.53;3.50;;;;;;;;;;4392231;32;20089;-61
2021/10/30 10:09:23;;;;;;;5.82;3.58;;;;;;;;;;4391504;32;20085;-62
2021/10/30 10:11:50;;;;;;;5.00;3.50;;;;;;;;;;4379073;32;20113;-61
2021/10/30 10:14:17;;;;;;;5.90;3.70;;;;;;;;;;4353978;32;20086;-62
2021/10/30 10:16:48;;;;;;;6.10;4.07;;;;;;;;;;4366621;32;20076;-64
2021/10/30 10:19:15;;;;;;;4.85;3.53;;;;;;;;;;4391520;32;20529;-62
2021/10/30 10:21:42;;;;;;;3.70;2.75;;;;;;;;;;4366641;32;20092;-62
2021/10/30 10:24:10;;;;;;;4.30;3.40;;;;;;;;;;4353609;32;20081;-62
2021/10/30 10:26:49;;;;;;;5.72;3.40;;;;;;;;;;4390961;32;20092;-62
2021/10/30 10:29:42;;;;;;;5.35;3.80;;;;;;;;;;4378371;32;20074;-63
2021/10/30 10:32:29;;;;;;;7.30;3.90;;;;;;;;;;4367767;32;20067;-63
2021/10/30 10:35:06;;;;;;;4.60;3.30;;;;;;;;;;4391093;32;20078;-63
2021/10/30 10:37:33;;;;;;;4.85;3.55;;;;;;;;;;4378744;32;20092;-63
2021/10/30 10:40:00;;;;;;;4.57;3.40;;;;;;;;;;4353743;32;20082;-64
2021/10/30 10:42:36;;;;;;;5.45;3.53;;;;;;;;;;4354133;32;20093;-64
2021/10/30 10:45:16;;;;;;;4.15;2.90;;;;;;;;;;4378699;32;20171;-63
2021/10/30 10:47:49;;;;;;;4.97;3.08;;;;;;;;;;4366608;32;20081;-61
2021/10/30 10:50:22;;;;;;;5.25;3.70;;;;;;;;;;4391066;32;20085;-63
2021/10/30 10:53:08;;;;;;;5.97;4.00;;;;;;;;;;4379578;32;20518;-63
2021/10/30 10:55:36;;;;;;;5.75;4.07;;;;;;;;;;4378235;32;20069;-63
2021/10/30 10:58:07;;;;;;;8.90;3.67;;;;;;;;;;4365830;32;20077;-62
2021/10/30 11:00:35;;;;;;;7.53;3.62;;;;;;;;;;4390441;32;20088;-63
2021/10/30 11:03:02;;;;;;;6.55;3.35;;;;;;;;;;4378114;32;20512;-60
2021/10/30 11:05:43;;;;;;;4.03;3.20;;;;;;;;;;3831647;37;20051;-60
2021/10/30 11:08:10;;;;;;;4.95;3.97;;;;;;;;;;4378628;32;20252;-62
2021/10/30 11:10:39;;;;;;;4.87;3.67;;;;;;;;;;4405004;32;20165;-62
2021/10/30 11:13:07;;;;;;;6.72;3.87;;;;;;;;;;4365900;32;20495;-62
2021/10/30 11:15:42;;;;;;;4.37;3.40;;;;;;;;;;4390935;32;20073;-63
2021/10/30 11:18:27;;;;;;;8.90;3.75;;;;;;;;;;4390909;32;20081;-61
2021/10/30 11:21:17;;;;;;;4.97;3.60;;;;;;;;;;4391144;32;20077;-62
2021/10/30 11:23:46;;;;;;;4.87;3.20;;;;;;;;;;4392132;32;20058;-62
2021/10/30 11:26:22;;;;;;;5.55;3.40;;;;;;;;;;4371359;32;20084;-62
2021/10/30 11:28:49;;;;;;;6.62;3.62;;;;;;;;;;4382030;32;20503;-61
2021/10/30 11:31:22;;;;;;;7.15;3.60;;;;;;;;;;4355064;32;20099;-63
2021/10/30 11:34:00;;;;;;;5.78;3.85;;;;;;;;;;4366942;32;20081;-63
2021/10/30 11:36:27;;;;;;;6.03;3.45;;;;;;;;;;4391796;32;20068;-62
2021/10/30 11:38:55;;;;;;;6.95;3.83;;;;;;;;;;4365458;32;20091;-62
2021/10/30 11:41:28;;;;;;;5.45;3.58;;;;;;;;;;4377736;32;20520;-63
2021/10/30 11:44:15;;;;;;;5.37;3.78;;;;;;;;;;4377786;32;20066;-62
2021/10/30 11:46:46;;;;;;;6.72;3.92;;;;;;;;;;4366279;32;20078;-62
2021/10/30 11:49:27;;;;;;;5.57;3.72;;;;;;;;;;4365046;32;20074;-63
2021/10/30 11:52:02;;;;;;;5.15;3.55;;;;;;;;;;4365988;32;20099;-61
2021/10/30 11:54:29;;;;;;;5.28;3.35;;;;;;;;;;4390292;32;20085;-62
2021/10/30 11:56:57;;;;;;;6.32;3.60;;;;;;;;;;4352428;32;20084;-63
2021/10/30 11:59:24;;;;;;;5.97;4.05;;;;;;;;;;4364958;32;20081;-61
2021/10/30 12:01:50;;;;;;;6.40;3.67;;;;;;;;;;4377210;32;20560;-63
2021/10/30 12:04:21;;;;;;;5.03;3.28;;;;;;;;;;4377038;32;20531;-63
2021/10/30 12:06:53;;;;;;;5.15;3.35;;;;;;;;;;4365120;32;20133;-63
2021/10/30 12:09:26;;;;;;;5.25;3.40;;;;;;;;;;4389665;32;20085;-62
2021/10/30 12:11:57;;;;;;;6.22;3.55;;;;;;;;;;4377422;32;20073;-62
2021/10/30 12:14:26;;;;;;;4.82;3.35;;;;;;;;;;4390255;32;20077;-63
2021/10/30 12:16:53;;;;;;;6.30;3.90;;;;;;;;;;4381035;32;20155;-63
2021/10/30 12:19:21;;;;;;;4.75;3.75;;;;;;;;;;4367358;32;20100;-63
2021/10/30 12:21:48;;;;;;;4.93;3.67;;;;;;;;;;4372069;32;20101;-63
2021/10/30 12:24:16;;;;;;;6.53;3.50;;;;;;;;;;4349304;32;20081;-63
2021/10/30 12:27:02;;;;;;;5.57;3.60;;;;;;;;;;4379572;32;20097;-62
2021/10/30 12:29:30;;;;;;;6.25;3.33;;;;;;;;;;4343250;32;20128;-62
2021/10/30 12:32:07;;;;;;;5.37;3.67;;;;;;;;;;4367088;32;20236;-63
2021/10/30 12:34:36;;;;;;;5.93;3.37;;;;;;;;;;4367918;32;20077;-63
2021/10/30 12:37:11;;;;;;;5.47;3.60;;;;;;;;;;4366780;32;20428;-63
2021/10/30 12:39:38;;;;;;;5.15;3.83;;;;;;;;;;4367135;32;20065;-62
2021/10/30 12:42:09;;;;;;;5.60;3.53;;;;;;;;;;4367316;32;20078;-63
2021/10/30 12:44:37;;;;;;;5.50;3.50;;;;;;;;;;4367012;32;20525;-62
2021/10/30 12:47:11;;;;;;;5.07;3.45;;;;;;;;;;4354545;32;20078;-64
2021/10/30 12:49:38;;;;;;;6.28;3.80;;;;;;;;;;4354153;32;20078;-63
2021/10/30 12:52:08;;;;;;;6.85;3.90;;;;;;;;;;4366872;32;20098;-63
2021/10/30 12:54:38;;;;;;;5.93;3.95;;;;;;;;;;4355762;32;20074;-62
2021/10/30 12:57:18;;;;;;;4.72;3.53;;;;;;;;;;4368368;32;20078;-63
2021/10/30 12:59:45;;;;;;;5.07;3.45;;;;;;;;;;4367843;32;20085;-63
2021/10/30 13:02:16;;;;;;;6.40;3.90;;;;;;;;;;4392832;32;20163;-62
2021/10/30 13:04:42;;;;;;;7.55;3.55;;;;;;;;;;4354351;32;20082;-63
2021/10/30 13:07:10;;;;;;;6.78;3.90;;;;;;;;;;4342026;32;20100;-63
2021/10/30 13:09:37;;;;;;;4.75;3.35;;;;;;;;;;4342034;32;20088;-62
2021/10/30 13:12:04;;;;;;;6.03;3.85;;;;;;;;;;4354485;32;20057;-63
2021/10/30 13:14:32;;;;;;;6.62;3.62;;;;;;;;;;4354138;32;20089;-62
2021/10/30 13:16:58;;;;;;;6.78;4.07;;;;;;;;;;4354842;32;20138;-63
2021/10/30 13:19:25;;;;;;;5.05;3.70;;;;;;;;;;4354640;32;20484;-63
2021/10/30 13:21:53;;;;;;;5.12;3.97;;;;;;;;;;4354087;32;20087;-62
2021/10/30 13:24:20;;;;;;;5.68;3.83;;;;;;;;;;4354428;32;20166;-62
2021/10/30 13:26:47;;;;;;;4.82;3.70;;;;;;;;;;4366352;32;20092;-62
2021/10/30 13:29:14;;;;;;;10.38;3.70;;;;;;;;;;4378209;32;20162;-62
2021/10/30 13:31:40;;;;;;;5.35;3.47;;;;;;;;;;4353948;32;20078;-63
2021/10/30 13:34:07;;;;;;;6.65;4.20;;;;;;;;;;4354016;32;20208;-62
2021/10/30 13:36:34;;;;;;;5.45;3.65;;;;;;;;;;4379117;32;20077;-63
2021/10/30 13:39:01;;;;;;;6.55;3.80;;;;;;;;;;4365759;32;20437;-63
2021/10/30 13:41:28;;;;;;;6.00;3.65;;;;;;;;;;4342196;32;20086;-62
2021/10/30 13:43:56;;;;;;;8.90;3.65;;;;;;;;;;4353709;32;20475;-61
2021/10/30 13:46:23;;;;;;;5.75;3.33;;;;;;;;;;4352992;32;20549;-63
2021/10/30 13:48:53;;;;;;;7.68;3.55;;;;;;;;;;4366164;32;20153;-63
2021/10/30 13:51:20;;;;;;;5.78;3.72;;;;;;;;;;4341824;32;20159;-61
2021/10/30 13:53:47;;;;;;;6.60;3.28;;;;;;;;;;4341058;32;20594;-62
2021/10/30 13:56:14;;;;;;;4.85;3.62;;;;;;;;;;4365728;32;20085;-61
2021/10/30 13:58:42;;;;;;;4.80;3.75;;;;;;;;;;4378263;32;20441;-62
2021/10/30 14:01:09;;;;;;;6.57;3.92;;;;;;;;;;4341841;32;20089;-61
2021/10/30 14:03:37;;;;;;;4.85;3.37;;;;;;;;;;4353373;32;20088;-62
2021/10/30 14:06:05;;;;;;;4.40;3.17;;;;;;;;;;4353697;32;20129;-63
2021/10/30 14:08:32;;;;;;;6.57;3.65;;;;;;;;;;4365983;32;20167;-63
2021/10/30 14:10:59;;;;;;;5.95;3.20;;;;;;;;;;4377931;32;20515;-62
2021/10/30 14:13:25;;;;;;;5.87;3.37;;;;;;;;;;4378069;32;20105;-64
2021/10/30 14:15:52;;;;;;;4.97;3.72;;;;;;;;;;4353473;32;20066;-61
2021/10/30 14:18:26;;;;;;;5.55;3.70;;;;;;;;;;4366074;32;20171;-61
2021/10/30 14:20:54;;;;;;;4.90;3.90;;;;;;;;;;4353886;32;20074;-63
2021/10/30 14:23:21;;;;;;;6.28;3.87;;;;;;;;;;4353099;32;20077;-63
2021/10/30 14:25:48;;;;;;;5.82;3.58;;;;;;;;;;4353196;32;20112;-62
2021/10/30 14:28:14;;;;;;;7.10;3.83;;;;;;;;;;4365419;32;20463;-61
2021/10/30 14:30:41;;;;;;;5.78;3.85;;;;;;;;;;4352822;32;20093;-62
2021/10/30 14:33:08;;;;;;;6.15;3.47;;;;;;;;;;4352927;32;20085;-62
2021/10/30 14:35:35;;;;;;;5.70;3.55;;;;;;;;;;4353331;32;20080;-62
2021/10/30 14:38:01;;;;;;;6.60;4.55;;;;;;;;;;4391420;32;20075;-63
2021/10/30 14:40:28;;;;;;;6.22;4.22;;;;;;;;;;4352739;32;20077;-63
2021/10/30 14:42:54;;;;;;;5.87;3.95;;;;;;;;;;4353197;32;20084;-61
2021/10/30 14:45:25;;;;;;;5.85;3.78;;;;;;;;;;4352547;32;20078;-64
2021/10/30 14:47:55;;;;;;;5.78;4.12;;;;;;;;;;4377501;32;20062;-62
2021/10/30 14:50:25;;;;;;;6.37;3.97;;;;;;;;;;4365677;32;20531;-62
2021/10/30 14:52:52;;;;;;;5.97;3.97;;;;;;;;;;4342151;32;20085;-63